Time;durP1;ratioP1;P1;durP2;ratioP2;P2;SDS_P1;SDS_P2;PMS_P1;PMS_P2;Temp;Humidity;BMP_temperature;BMP_pressure;BME280_temperature;BME280_humidity;BME280_pressure;Samples;Min_cycle;Max_cycle;Signal;HPM_P1;HPM_P2
2023/09/28 00:00:38;;;;;;;7.43;4.90;;;;;;;21.08;69.03;99663.75;5073602;28;20199;-67
2023/09/28 00:03:07;;;;;;;7.67;4.53;;;;;;;21.07;69.37;99664.81;5072705;28;20242;-67
2023/09/28 00:05:51;;;;;;;8.73;4.57;;;;;;;21.05;69.26;99660.75;5073224;28;20675;-68
2023/09/28 00:08:18;;;;;;;9.03;4.80;;;;;;;21.03;69.27;99655.59;5083411;28;20186;-68
2023/09/28 00:10:44;;;;;;;9.43;5.03;;;;;;;21.02;69.77;99643.16;5093270;28;20196;-67
2023/09/28 00:13:10;;;;;;;9.40;4.40;;;;;;;20.97;69.44;99645.00;5093534;28;20203;-68
2023/09/28 00:15:37;;;;;;;10.13;4.17;;;;;;;20.74;69.72;99646.16;5093336;28;20191;-67
2023/09/28 00:18:05;;;;;;;7.67;4.50;;;;;;;20.70;70.13;99644.25;5093463;28;20237;-67
2023/09/28 00:20:32;;;;;;;7.03;4.37;;;;;;;20.63;70.23;99633.66;5093175;28;20191;-67
2023/09/28 00:25:43;;;;;;;7.13;4.47;;;;;;;20.36;71.17;99659.84;5093220;28;20558;-68
2023/09/28 00:28:08;;;;;;;8.80;4.70;;;;;;;20.39;71.02;99645.88;5093443;28;20218;-67
2023/09/28 00:30:35;;;;;;;6.30;4.27;;;;;;;20.39;70.74;99637.78;5092946;28;20226;-68
2023/09/28 00:33:20;;;;;;;6.27;4.27;;;;;;;20.20;71.10;99644.59;5093365;28;20582;-68
2023/09/28 00:36:06;;;;;;;5.93;3.83;;;;;;;20.03;71.57;99654.63;5093218;28;20183;-68
2023/09/28 00:38:32;;;;;;;8.17;4.77;;;;;;;20.03;71.38;99649.22;5093033;28;20203;-68
2023/09/28 00:40:58;;;;;;;5.90;4.50;;;;;;;20.00;71.23;99649.72;5093078;28;20284;-68
2023/09/28 00:43:29;;;;;;;9.80;5.07;;;;;;;19.74;71.47;99650.50;5092698;28;20211;-68
2023/09/28 00:48:52;;;;;;;7.90;4.60;;;;;;;19.69;71.78;99642.38;5092735;28;20182;-68
2023/09/28 00:51:19;;;;;;;5.23;4.70;;;;;;;19.55;72.24;99643.78;5092693;28;20311;-68
2023/09/28 00:53:46;;;;;;;6.90;4.50;;;;;;;19.57;72.44;99633.59;5092670;28;20203;-68
2023/09/28 00:56:12;;;;;;;7.83;4.87;;;;;;;19.46;72.78;99638.03;5092487;28;20252;-68
2023/09/28 00:58:39;;;;;;;10.93;5.00;;;;;;;19.43;73.11;99643.91;5092679;28;20301;-68
2023/09/28 01:01:06;;;;;;;9.03;4.87;;;;;;;19.39;73.00;99637.41;5092714;28;20254;-68
2023/09/28 01:03:34;;;;;;;10.30;5.47;;;;;;;19.36;73.32;99637.09;5092573;28;20643;-68
2023/09/28 01:08:47;;;;;;;10.67;5.30;;;;;;;19.15;73.66;99640.53;5078398;28;20196;-68
2023/09/28 01:11:12;;;;;;;6.10;5.03;;;;;;;19.04;74.29;99636.06;5071989;28;20726;-68
2023/09/28 01:13:40;;;;;;;5.47;4.60;;;;;;;19.09;73.45;99633.44;5070925;28;20196;-68
2023/09/28 01:16:26;;;;;;;8.83;5.43;;;;;;;19.08;73.90;99634.50;5071405;28;20188;-68
2023/09/28 01:18:51;;;;;;;7.23;5.07;;;;;;;19.13;73.80;99640.78;5071668;28;20192;-68
2023/09/28 01:21:37;;;;;;;8.03;5.20;;;;;;;19.19;73.86;99638.97;5072100;28;20205;-68
2023/09/28 01:24:22;;;;;;;5.47;4.80;;;;;;;19.21;73.58;99629.59;5071595;28;20310;-68
2023/09/28 01:27:08;;;;;;;8.07;5.30;;;;;;;19.16;73.99;99631.38;5072004;28;20203;-68
2023/09/28 01:29:34;;;;;;;11.97;5.73;;;;;;;19.17;73.83;99628.44;5071525;28;20202;-68
2023/09/28 01:32:02;;;;;;;7.07;4.47;;;;;;;19.17;74.28;99630.31;5071889;28;20195;-68
2023/09/28 01:34:27;;;;;;;7.73;5.30;;;;;;;19.17;74.33;99622.25;5071528;28;20199;-68
2023/09/28 01:37:13;;;;;;;6.43;4.90;;;;;;;19.25;74.18;99627.22;5071789;28;20198;-68
2023/09/28 01:39:40;;;;;;;16.90;5.67;;;;;;;19.31;73.86;99623.53;5071776;28;20225;-68
2023/09/28 01:42:07;;;;;;;12.17;5.73;;;;;;;19.31;73.85;99626.22;5071843;28;20227;-68
2023/09/28 01:44:33;;;;;;;12.07;5.20;;;;;;;19.37;73.90;99617.16;5071286;28;20292;-68
2023/09/28 01:49:44;;;;;;;8.57;5.43;;;;;;;19.50;73.29;99616.78;5071492;28;20183;-68
2023/09/28 01:52:09;;;;;;;7.20;5.50;;;;;;;19.54;73.10;99612.53;5071685;28;20187;-68
2023/09/28 01:54:54;;;;;;;13.27;5.27;;;;;;;19.66;72.82;99621.28;5071331;28;20204;-68
2023/09/28 01:57:22;;;;;;;11.60;5.37;;;;;;;19.73;72.41;99627.31;5071717;28;20615;-68
2023/09/28 01:59:48;;;;;;;7.57;5.17;;;;;;;19.77;72.38;99631.16;5071269;28;20192;-67
2023/09/28 02:02:15;;;;;;;7.70;5.33;;;;;;;19.79;72.19;99621.75;5071734;28;20200;-68
2023/09/28 02:04:59;;;;;;;9.37;5.20;;;;;;;19.84;71.85;99623.66;5071073;28;20772;-67
2023/09/28 02:07:26;;;;;;;10.80;4.67;;;;;;;19.83;71.66;99619.34;5074244;28;20184;-67
2023/09/28 02:09:51;;;;;;;9.43;5.43;;;;;;;19.86;71.71;99626.94;5091646;28;20194;-67
2023/09/28 02:15:05;;;;;;;11.93;4.83;;;;;;;19.85;71.20;99630.69;5091480;28;20183;-67
2023/09/28 02:17:31;;;;;;;10.93;5.10;;;;;;;19.82;71.00;99620.41;5091556;28;20199;-67
2023/09/28 02:20:16;;;;;;;8.80;4.80;;;;;;;19.89;71.03;99634.53;5091216;28;20248;-67
2023/09/28 02:22:44;;;;;;;10.73;4.43;;;;;;;19.86;70.94;99632.31;5091662;28;20263;-67
2023/09/28 02:27:55;;;;;;;9.40;4.70;;;;;;;19.82;70.42;99641.97;5095563;28;20189;-67
2023/09/28 02:30:23;;;;;;;8.47;4.80;;;;;;;19.70;70.72;99633.22;5095464;28;20192;-68
2023/09/28 02:32:51;;;;;;;7.70;4.73;;;;;;;19.66;70.71;99632.91;5095273;28;20191;-68
2023/09/28 02:35:18;;;;;;;11.83;4.83;;;;;;;19.70;70.60;99633.22;5095061;28;20658;-68
2023/09/28 02:37:48;;;;;;;4.97;4.40;;;;;;;19.65;70.44;99633.16;5095466;28;20229;-68
2023/09/28 02:40:15;;;;;;;7.70;4.47;;;;;;;19.59;70.49;99631.44;5095237;28;20275;-68
2023/09/28 02:42:42;;;;;;;7.67;4.33;;;;;;;19.63;70.68;99632.56;5095632;28;20218;-68
2023/09/28 02:45:11;;;;;;;7.97;4.73;;;;;;;19.70;70.29;99633.22;5094850;28;20310;-67
2023/09/28 02:47:41;;;;;;;8.20;4.47;;;;;;;19.72;69.89;99625.66;5095247;28;20197;-68
2023/09/28 02:50:09;;;;;;;5.93;4.17;;;;;;;19.78;70.04;99630.06;5095170;28;20192;-67
2023/09/28 02:52:36;;;;;;;9.17;4.53;;;;;;;19.85;69.89;99638.78;5095131;28;20251;-67
2023/09/28 02:55:40;;;;;;;17.20;4.63;;;;;;;19.90;69.53;99636.16;5094818;28;20199;-67
2023/09/28 02:58:06;;;;;;;11.77;4.10;;;;;;;19.92;69.54;99642.09;5094863;28;20241;-68
2023/09/28 03:00:52;;;;;;;10.07;4.50;;;;;;;19.90;69.06;99641.53;5094937;28;20272;-68
2023/09/28 03:06:05;;;;;;;7.90;4.60;;;;;;;19.86;69.74;99648.50;5094828;28;20186;-62
2023/09/28 03:08:31;;;;;;;12.80;4.53;;;;;;;19.95;71.01;99642.41;5094393;28;20189;-62
2023/09/28 03:14:00;;;;;;;6.67;4.10;;;;;;;20.88;67.54;99639.25;5094644;28;20194;-62
2023/09/28 03:16:27;;;;;;;8.87;4.00;;;;;;;21.26;65.47;99652.50;5094569;28;20191;-62
2023/09/28 03:19:13;;;;;;;8.43;3.70;;;;;;;21.49;64.99;99665.63;5094665;28;20328;-63
2023/09/28 03:21:41;;;;;;;9.97;3.90;;;;;;;21.78;63.77;99663.34;5094679;28;20245;-63
2023/09/28 03:26:52;;;;;;;5.27;4.00;;;;;;;22.13;61.00;99660.78;5094364;28;20178;-61
2023/09/28 03:29:18;;;;;;;7.30;3.90;;;;;;;22.23;61.46;99661.63;5093996;28;20192;-61
2023/09/28 03:31:45;;;;;;;9.73;4.10;;;;;;;22.44;60.84;99652.44;5094096;28;20260;-61
2023/09/28 03:34:12;;;;;;;9.70;3.87;;;;;;;22.66;60.02;99661.16;5094080;28;20207;-61
2023/09/28 03:36:57;;;;;;;8.17;4.20;;;;;;;22.82;59.41;99649.25;5093614;28;20215;-61
2023/09/28 03:39:24;;;;;;;12.17;4.60;;;;;;;23.03;58.50;99661.69;5094361;28;20189;-61
2023/09/28 03:42:09;;;;;;;6.47;4.43;;;;;;;23.08;57.46;99669.00;5094445;28;20225;-61
2023/09/28 03:44:35;;;;;;;3.83;3.53;;;;;;;22.99;56.47;99659.81;5094031;28;20723;-61
2023/09/28 03:47:02;;;;;;;6.77;3.57;;;;;;;22.90;58.21;99667.66;5094123;28;20270;-63
2023/09/28 03:49:30;;;;;;;11.43;4.20;;;;;;;22.98;58.31;99663.59;5093705;28;20242;-63
2023/09/28 03:51:57;;;;;;;7.03;3.70;;;;;;;23.03;55.27;99677.94;5093366;28;20196;-66
2023/09/28 03:54:43;;;;;;;3.97;3.33;;;;;;;22.74;55.82;99678.78;5093886;28;20254;-66
2023/09/28 03:57:10;;;;;;;5.93;3.83;;;;;;;22.41;57.34;99669.22;5094091;28;20246;-66
2023/09/28 03:59:37;;;;;;;5.90;4.07;;;;;;;22.20;58.41;99677.56;5093747;28;20193;-66
2023/09/28 04:02:22;;;;;;;4.77;3.20;;;;;;;22.10;59.05;99677.53;5093919;28;20196;-65
2023/09/28 04:04:50;;;;;;;10.73;3.97;;;;;;;22.29;59.12;99674.06;5093538;28;20207;-65
2023/09/28 04:07:17;;;;;;;14.60;4.90;;;;;;;22.52;58.47;99670.91;5090949;28;20664;-65
2023/09/28 04:09:43;;;;;;;21.83;4.43;;;;;;;22.45;57.84;99677.59;5073093;28;20690;-66
2023/09/28 04:12:28;;;;;;;4.20;3.77;;;;;;;22.44;59.01;99673.28;5073157;28;20284;-65
2023/09/28 04:14:55;;;;;;;7.20;3.83;;;;;;;22.75;58.05;99672.28;5073011;28;20235;-65
2023/09/28 04:17:22;;;;;;;5.10;3.97;;;;;;;22.83;57.25;99682.56;5073261;28;20717;-66
2023/09/28 04:19:50;;;;;;;17.50;4.40;;;;;;;23.00;57.19;99674.97;5073222;28;20193;-65
2023/09/28 04:22:17;;;;;;;12.03;4.30;;;;;;;22.96;57.49;99682.03;5072916;28;20689;-65
2023/09/28 04:24:43;;;;;;;4.93;4.33;;;;;;;22.88;57.63;99680.69;5073324;28;20232;-65
2023/09/28 04:27:28;;;;;;;7.97;4.70;;;;;;;22.67;57.73;99689.06;5072948;28;20193;-65
2023/09/28 04:30:13;;;;;;;8.57;4.03;;;;;;;22.61;58.54;99685.53;5073157;28;20238;-65
2023/09/28 04:32:40;;;;;;;12.37;5.00;;;;;;;22.64;57.77;99690.41;5073070;28;20202;-65
2023/09/28 04:35:10;;;;;;;6.73;4.03;;;;;;;22.71;58.62;99690.94;5072608;28;20201;-65
2023/09/28 04:37:37;;;;;;;11.27;4.70;;;;;;;22.74;58.23;99689.63;5072920;28;20193;-65
2023/09/28 04:40:04;;;;;;;7.97;4.40;;;;;;;22.81;57.36;99699.09;5072769;28;20197;-65
2023/09/28 04:42:31;;;;;;;10.23;4.33;;;;;;;22.65;57.36;99700.16;5073190;28;20224;-66
2023/09/28 04:44:58;;;;;;;13.23;4.50;;;;;;;22.41;59.16;99700.91;5072362;28;20215;-65
2023/09/28 04:47:25;;;;;;;11.53;4.57;;;;;;;22.26;59.70;99706.28;5072763;28;20633;-65
2023/09/28 04:49:51;;;;;;;9.40;4.57;;;;;;;22.15;59.54;99700.03;5072541;28;20202;-65
2023/09/28 04:52:19;;;;;;;4.27;3.97;;;;;;;22.23;60.14;99704.09;5072135;28;20245;-66
2023/09/28 04:54:46;;;;;;;7.93;4.43;;;;;;;22.47;58.03;99711.53;5072485;28;20219;-65
2023/09/28 04:57:13;;;;;;;9.30;4.63;;;;;;;22.57;57.96;99718.81;5072567;28;20188;-65
2023/09/28 04:59:40;;;;;;;6.63;3.63;;;;;;;22.69;58.29;99703.97;5072359;28;20198;-65
2023/09/28 05:02:07;;;;;;;17.77;5.23;;;;;;;22.77;57.55;99716.97;5072298;28;20240;-65
2023/09/28 05:04:52;;;;;;;10.17;4.77;;;;;;;22.88;56.67;99715.91;5072283;28;20283;-66
2023/09/28 05:07:20;;;;;;;11.97;4.40;;;;;;;22.99;56.25;99720.22;5073570;28;20189;-65
2023/09/28 05:09:48;;;;;;;12.17;4.23;;;;;;;23.15;56.74;99713.72;5092395;28;20193;-65
2023/09/28 05:12:15;;;;;;;13.67;4.70;;;;;;;23.21;55.79;99711.84;5092042;28;20665;-67
2023/09/28 05:15:00;;;;;;;10.67;4.10;;;;;;;23.12;56.00;99708.03;5092170;28;20764;-66
2023/09/28 05:17:27;;;;;;;12.87;4.77;;;;;;;23.22;56.16;99713.47;5092357;28;20213;-65
2023/09/28 05:19:53;;;;;;;17.03;4.97;;;;;;;23.12;55.63;99708.81;5092585;28;20189;-66
2023/09/28 05:22:21;;;;;;;15.93;4.87;;;;;;;23.16;56.06;99719.97;5092243;28;20197;-66
2023/09/28 05:24:48;;;;;;;34.43;8.23;;;;;;;23.12;55.59;99714.25;5091825;28;20302;-66
2023/09/28 05:27:14;;;;;;;11.33;4.50;;;;;;;23.16;56.46;99715.34;5091916;28;20253;-65
2023/09/28 05:30:00;;;;;;;16.30;4.80;;;;;;;23.03;55.88;99731.34;5091825;28;20189;-65
2023/09/28 05:35:11;;;;;;;11.13;4.40;;;;;;;22.49;58.59;99722.06;5091991;28;20233;-66
2023/09/28 05:37:39;;;;;;;8.53;5.40;;;;;;;22.45;59.56;99724.47;5091589;28;20193;-66
2023/09/28 05:40:25;;;;;;;11.90;4.63;;;;;;;22.64;58.10;99724.81;5092247;28;20580;-66
2023/09/28 05:48:38;;;;;;;10.07;4.90;;;;;;;22.43;59.85;99723.94;5091816;28;20569;-67
2023/09/28 05:53:52;;;;;;;7.60;4.70;;;;;;;22.68;58.59;99731.31;5091751;28;20176;-66
2023/09/28 05:59:21;;;;;;;8.13;5.07;;;;;;;22.62;59.41;99714.22;5091668;28;20191;-66
2023/09/28 06:04:51;;;;;;;5.90;5.07;;;;;;;23.30;57.29;99730.00;5091709;28;20607;-65
2023/09/28 06:07:17;;;;;;;11.93;4.57;;;;;;;23.54;56.30;99732.94;5089106;28;20197;-66
2023/09/28 06:09:45;;;;;;;11.30;4.30;;;;;;;23.75;55.42;99738.06;5071088;28;20248;-65
2023/09/28 06:12:31;;;;;;;7.87;3.93;;;;;;;23.91;54.40;99742.38;5071191;28;20616;-65
2023/09/28 06:15:16;;;;;;;6.43;4.70;;;;;;;23.95;54.10;99750.78;5071145;28;20202;-65
2023/09/28 06:18:01;;;;;;;8.90;4.37;;;;;;;24.02;53.30;99752.09;5070938;28;20218;-66
2023/09/28 06:20:28;;;;;;;11.23;5.13;;;;;;;24.15;53.38;99751.53;5076790;28;20339;-68
2023/09/28 06:22:54;;;;;;;14.80;4.23;;;;;;;24.25;52.96;99759.63;5077702;28;20190;-70
2023/09/28 06:25:41;;;;;;;7.73;4.63;;;;;;;24.14;52.12;99755.31;5090445;28;20214;-70
2023/09/28 06:28:08;;;;;;;14.17;4.90;;;;;;;24.12;52.52;99767.53;5089849;28;20281;-70
2023/09/28 06:30:54;;;;;;;17.63;4.60;;;;;;;24.23;53.22;99764.53;5089495;28;20289;-69
2023/09/28 06:33:21;;;;;;;9.10;5.33;;;;;;;24.43;52.68;99769.06;5089853;28;20684;-70
2023/09/28 06:35:48;;;;;;;12.43;4.23;;;;;;;24.67;52.33;99770.84;5089725;28;20256;-68
2023/09/28 06:38:33;;;;;;;18.47;4.63;;;;;;;24.61;51.32;99765.72;5088087;28;20190;-65
2023/09/28 06:41:01;;;;;;;14.63;5.00;;;;;;;24.60;51.71;99774.94;5080936;28;20222;-65
2023/09/28 06:43:28;;;;;;;8.30;4.77;;;;;;;24.38;51.99;99760.94;5075035;28;20191;-65
2023/09/28 06:45:56;;;;;;;10.00;4.47;;;;;;;24.10;52.53;99748.81;5077011;28;20301;-66
2023/09/28 06:48:23;;;;;;;15.63;4.53;;;;;;;24.25;52.49;99767.78;5087038;28;20673;-65
2023/09/28 06:51:08;;;;;;;4.57;4.10;;;;;;;24.13;53.54;99761.84;5087602;28;20332;-65
2023/09/28 06:53:35;;;;;;;8.17;4.30;;;;;;;24.25;52.30;99767.78;5085535;28;20198;-66
2023/09/28 06:56:03;;;;;;;13.23;4.93;;;;;;;24.14;52.56;99768.88;5086936;28;20203;-65
2023/09/28 06:58:30;;;;;;;16.60;4.67;;;;;;;24.20;52.94;99769.69;5087328;28;20202;-65
2023/09/28 07:00:56;;;;;;;11.37;4.03;;;;;;;24.24;52.37;99776.19;5085405;28;20198;-65
2023/09/28 07:03:42;;;;;;;16.30;4.33;;;;;;;24.28;53.21;99778.09;5088977;28;20236;-66
2023/09/28 07:06:09;;;;;;;15.00;4.87;;;;;;;24.26;52.19;99774.81;5088934;28;20222;-65
2023/09/28 07:08:54;;;;;;;7.93;4.10;;;;;;;24.23;52.71;99775.41;5078762;28;20276;-65
2023/09/28 07:11:40;;;;;;;10.13;4.00;;;;;;;24.30;52.41;99775.09;5071510;28;20191;-65
2023/09/28 07:14:07;;;;;;;12.97;3.87;;;;;;;24.65;50.94;99773.03;5074002;28;20627;-65
2023/09/28 07:16:36;;;;;;;8.47;4.13;;;;;;;24.72;49.92;99767.28;5073994;28;20639;-65
2023/09/28 07:19:04;;;;;;;9.00;3.77;;;;;;;24.86;50.45;99771.00;5073913;28;20203;-65
2023/09/28 07:21:31;;;;;;;8.27;4.43;;;;;;;25.12;48.95;99782.50;5074257;28;20230;-66
2023/09/28 07:23:59;;;;;;;27.40;5.63;;;;;;;25.23;48.63;99794.94;5074496;28;20195;-65
2023/09/28 07:26:25;;;;;;;7.10;3.63;;;;;;;25.36;49.11;99788.88;5073771;28;20736;-66
2023/09/28 07:28:54;;;;;;;10.43;4.50;;;;;;;25.54;48.51;99790.88;5074034;28;20764;-66
2023/09/28 07:31:21;;;;;;;11.23;3.97;;;;;;;25.74;47.64;99790.69;5074002;28;20192;-66
2023/09/28 07:33:49;;;;;;;14.30;3.93;;;;;;;25.88;46.44;99797.09;5074032;28;20211;-66
2023/09/28 07:36:16;;;;;;;16.00;3.80;;;;;;;25.83;45.33;99794.41;5073817;28;20204;-66
2023/09/28 07:38:43;;;;;;;16.67;4.53;;;;;;;25.77;45.10;99796.38;5073652;28;20541;-65
2023/09/28 07:41:10;;;;;;;13.83;4.23;;;;;;;25.70;44.99;99789.63;5074020;28;20228;-67
2023/09/28 07:43:57;;;;;;;21.87;4.93;;;;;;;25.60;45.23;99787.03;5073876;28;20188;-66
2023/09/28 07:46:42;;;;;;;14.83;3.73;;;;;;;25.66;45.75;99785.88;5073722;28;20220;-66
2023/09/28 07:49:09;;;;;;;8.33;3.93;;;;;;;25.79;45.85;99790.63;5073612;28;20275;-66
2023/09/28 07:51:35;;;;;;;35.73;5.43;;;;;;;25.93;45.23;99794.31;5073550;28;20247;-66
2023/09/28 07:54:02;;;;;;;11.17;3.83;;;;;;;25.99;45.12;99790.44;5085776;28;20249;-66
2023/09/28 07:56:29;;;;;;;12.47;4.27;;;;;;;25.94;44.38;99790.50;5092365;28;20211;-66
2023/09/28 07:58:57;;;;;;;19.87;4.50;;;;;;;25.87;44.35;99790.00;5093376;28;20577;-66
2023/09/28 08:01:25;;;;;;;17.87;3.87;;;;;;;25.55;44.74;99789.81;5093514;28;20245;-66
2023/09/28 08:04:11;;;;;;;14.17;3.97;;;;;;;25.37;44.29;99785.03;5093684;28;20281;-66
2023/09/28 08:06:38;;;;;;;8.17;3.50;;;;;;;25.44;44.76;99782.81;5093763;28;20285;-66
2023/09/28 08:09:23;;;;;;;9.43;3.40;;;;;;;25.45;45.33;99784.44;5078494;28;20187;-65
2023/09/28 08:12:08;;;;;;;11.93;3.77;;;;;;;25.47;45.36;99768.66;5073568;28;20196;-65
2023/09/28 08:14:36;;;;;;;14.93;4.47;;;;;;;25.40;45.52;99776.31;5073146;28;20275;-66
2023/09/28 08:17:03;;;;;;;6.80;3.73;;;;;;;25.31;45.55;99775.31;5073382;28;20257;-65
2023/09/28 08:19:30;;;;;;;8.00;3.93;;;;;;;25.20;46.02;99773.75;5073241;28;20188;-66
2023/09/28 08:24:40;;;;;;;8.53;3.70;;;;;;;25.18;46.67;99776.75;5072675;28;20226;-66
2023/09/28 08:27:25;;;;;;;12.47;4.40;;;;;;;25.18;47.06;99775.94;5072935;28;20196;-66
2023/09/28 08:29:53;;;;;;;8.17;3.97;;;;;;;25.11;46.40;99781.69;5073108;28;20187;-66
2023/09/28 08:32:20;;;;;;;7.63;4.03;;;;;;;25.07;47.16;99777.91;5072814;28;20238;-66
2023/09/28 08:34:47;;;;;;;11.77;4.07;;;;;;;25.11;47.12;99781.69;5072607;28;20192;-66
2023/09/28 08:37:13;;;;;;;8.07;4.17;;;;;;;25.17;46.38;99774.28;5072710;28;20196;-66
2023/09/28 08:39:59;;;;;;;23.80;5.00;;;;;;;25.23;45.88;99773.97;5072532;28;20693;-66
2023/09/28 08:42:28;;;;;;;5.97;3.80;;;;;;;25.37;46.58;99771.44;5072568;28;20715;-66
2023/09/28 08:47:48;;;;;;;10.90;3.50;;;;;;;25.48;44.48;99767.53;5072434;28;20199;-66
2023/09/28 08:50:21;;;;;;;6.93;3.40;;;;;;;25.56;44.25;99761.47;5072576;28;20200;-66
2023/09/28 08:53:07;;;;;;;32.87;6.23;;;;;;;25.84;44.06;99764.16;5072751;28;20234;-66
2023/09/28 08:55:34;;;;;;;27.03;4.93;;;;;;;26.12;43.43;99770.69;5072163;28;20725;-66
2023/09/28 08:58:02;;;;;;;24.83;4.40;;;;;;;26.27;42.95;99768.59;5072320;28;20608;-66
2023/09/28 09:00:31;;;;;;;4.90;3.73;;;;;;;26.35;42.71;99769.88;5072332;28;20257;-66
2023/09/28 09:02:58;;;;;;;14.70;3.83;;;;;;;26.32;42.62;99767.72;5072507;28;20192;-67
2023/09/28 09:05:29;;;;;;;7.00;3.80;;;;;;;26.38;42.61;99766.56;5072257;28;20234;-67
2023/09/28 09:07:56;;;;;;;9.17;3.90;;;;;;;26.67;41.87;99759.09;5072115;28;20654;-66
2023/09/28 09:10:27;;;;;;;3.70;3.40;;;;;;;26.82;41.57;99758.91;5072215;28;20245;-67
2023/09/28 09:16:01;;;;;;;12.63;4.40;;;;;;;26.89;40.58;99762.03;5071548;28;20227;-66
2023/09/28 09:18:29;;;;;;;17.57;4.90;;;;;;;26.90;41.18;99763.69;5081712;28;20196;-66
2023/09/28 09:21:15;;;;;;;4.57;3.63;;;;;;;26.94;41.01;99751.88;5090679;28;20274;-65
2023/09/28 09:23:42;;;;;;;6.63;3.70;;;;;;;26.93;40.82;99757.63;5086502;28;20214;-66
2023/09/28 09:26:17;;;;;;;10.50;3.97;;;;;;;27.02;41.23;99753.94;5080142;28;20219;-66
2023/09/28 09:28:46;;;;;;;9.50;3.70;;;;;;;26.98;41.13;99760.25;5079973;28;20179;-66
2023/09/28 09:31:15;;;;;;;10.23;3.70;;;;;;;26.90;41.81;99752.78;5075567;28;20211;-65
2023/09/28 09:33:44;;;;;;;8.30;4.27;;;;;;;26.85;42.24;99748.19;5078441;28;20718;-66
2023/09/28 09:36:10;;;;;;;10.00;4.17;;;;;;;26.95;42.17;99747.25;5080718;28;20207;-65
2023/09/28 09:38:37;;;;;;;14.13;4.47;;;;;;;27.10;41.12;99745.06;5079010;28;20189;-66
2023/09/28 09:41:24;;;;;;;14.60;5.87;;;;;;;27.15;41.60;99742.25;5078011;28;20219;-66
2023/09/28 09:43:51;;;;;;;9.93;6.47;;;;;;;27.38;45.50;99740.53;5078431;28;20635;-67
2023/09/28 09:49:07;;;;;;;7.83;3.70;;;;;;;27.68;42.64;99734.53;5073054;28;20632;-66
2023/09/28 09:51:35;;;;;;;18.83;5.17;;;;;;;27.61;40.50;99723.19;5077195;28;20267;-66
2023/09/28 09:54:02;;;;;;;19.30;4.80;;;;;;;27.90;41.14;99732.78;5087729;28;20195;-66
2023/09/28 09:56:33;;;;;;;14.00;4.30;;;;;;;28.08;39.79;99728.28;5086518;28;20260;-67
2023/09/28 09:59:01;;;;;;;13.07;4.57;;;;;;;28.10;39.74;99732.31;5067815;28;20191;-66
2023/09/28 10:01:29;;;;;;;7.53;3.30;;;;;;;27.96;38.67;99725.25;5069019;28;20397;-67
2023/09/28 10:03:59;;;;;;;9.23;4.10;;;;;;;27.95;39.49;99731.84;5087176;28;20274;-66
2023/09/28 10:06:27;;;;;;;13.07;3.40;;;;;;;27.89;39.52;99725.66;5088742;28;20223;-66
2023/09/28 10:08:54;;;;;;;12.30;3.90;;;;;;;27.91;40.04;99728.91;5073667;28;20845;-66
2023/09/28 10:11:40;;;;;;;16.70;3.70;;;;;;;28.05;39.72;99731.66;5070057;28;20741;-66
2023/09/28 10:14:08;;;;;;;14.67;3.90;;;;;;;28.07;39.48;99721.22;5066617;28;20196;-67
2023/09/28 10:16:37;;;;;;;10.47;4.00;;;;;;;28.13;39.78;99725.47;5072170;28;20215;-66
2023/09/28 10:21:51;;;;;;;10.13;3.93;;;;;;;28.44;39.80;99718.25;5075986;28;20198;-67
2023/09/28 10:24:36;;;;;;;13.33;3.40;;;;;;;28.59;39.61;99717.91;5076592;28;20199;-66
2023/09/28 10:27:27;;;;;;;15.70;4.10;;;;;;;28.68;39.39;99716.88;5078070;28;20575;-66
2023/09/28 10:30:19;;;;;;;11.90;3.27;;;;;;;28.72;38.72;99717.88;5080179;28;20176;-66
2023/09/28 10:32:48;;;;;;;8.40;3.30;;;;;;;28.73;38.29;99714.03;5076196;28;20199;-66
2023/09/28 10:35:33;;;;;;;14.07;5.33;;;;;;;28.75;38.23;99711.00;5077167;28;20199;-67
2023/09/28 10:38:19;;;;;;;16.80;4.10;;;;;;;28.63;38.61;99708.78;5067299;28;20185;-66
2023/09/28 10:41:07;;;;;;;6.73;3.70;;;;;;;28.69;37.86;99707.56;5067449;28;20246;-66
2023/09/28 10:43:35;;;;;;;8.57;3.33;;;;;;;28.71;38.35;99705.31;5066888;28;20257;-64
2023/09/28 10:46:21;;;;;;;6.17;3.40;;;;;;;28.53;38.87;99705.47;5067969;28;20242;-66
2023/09/28 10:49:07;;;;;;;9.70;3.63;;;;;;;28.67;38.98;99700.78;5078231;28;20183;-66
2023/09/28 10:51:34;;;;;;;7.80;3.43;;;;;;;28.90;38.29;99702.41;5085290;28;20187;-67
2023/09/28 10:57:07;;;;;;;4.53;2.97;;;;;;;28.92;38.68;99694.69;5081741;28;20244;-66
2023/09/28 11:02:20;;;;;;;12.53;3.73;;;;;;;28.92;39.12;99690.03;5081882;28;20195;-66
2023/09/28 11:07:52;;;;;;;10.10;3.27;;;;;;;28.63;39.71;99691.56;5071264;28;20195;-66
2023/09/28 11:10:37;;;;;;;5.40;3.33;;;;;;;28.83;39.81;99685.63;5070758;28;20686;-66
2023/09/28 11:13:23;;;;;;;5.40;2.97;;;;;;;28.99;39.46;99686.88;5070121;28;20283;-66
2023/09/28 11:15:50;;;;;;;7.87;3.53;;;;;;;29.08;38.94;99676.81;5072357;28;20215;-65
2023/09/28 11:18:37;;;;;;;6.67;3.50;;;;;;;29.16;39.24;99685.06;5081985;28;20203;-67
2023/09/28 11:21:06;;;;;;;11.70;4.23;;;;;;;29.19;38.53;99678.16;5080875;28;20699;-66
2023/09/28 11:23:34;;;;;;;9.13;3.37;;;;;;;29.27;37.92;99678.22;5081973;28;20223;-65
2023/09/28 11:26:03;;;;;;;10.30;3.87;;;;;;;29.44;38.31;99669.28;5079428;28;20223;-65
2023/09/28 11:28:31;;;;;;;17.27;3.80;;;;;;;29.54;38.20;99666.28;5080607;28;20196;-64
2023/09/28 11:31:22;;;;;;;10.23;3.13;;;;;;;29.75;37.96;99667.34;5083003;28;20187;-66
2023/09/28 11:33:49;;;;;;;11.00;3.50;;;;;;;29.75;37.88;99670.06;5076909;28;20184;-66
2023/09/28 11:36:20;;;;;;;5.73;3.63;;;;;;;29.79;37.57;99676.53;5077975;28;20286;-67
2023/09/28 11:39:06;;;;;;;8.47;3.50;;;;;;;29.87;37.11;99673.03;5080886;28;20183;-65
2023/09/28 11:41:58;;;;;;;9.70;3.90;;;;;;;30.04;36.66;99678.53;5082032;28;20223;-64
2023/09/28 11:44:26;;;;;;;6.63;3.60;;;;;;;29.88;36.77;99658.19;5079786;28;20278;-63
2023/09/28 11:46:53;;;;;;;5.90;3.60;;;;;;;29.95;37.03;99661.28;5079625;28;20654;-65
2023/09/28 11:57:59;;;;;;;6.67;3.00;;;;;;;29.83;37.12;99650.13;5073753;28;20185;-64
2023/09/28 12:03:28;;;;;;;11.87;3.70;;;;;;;29.91;36.76;99648.53;5082554;28;20320;-65
2023/09/28 12:05:55;;;;;;;6.97;3.50;;;;;;;29.92;36.97;99658.38;5083684;28;20187;-64
2023/09/28 12:08:24;;;;;;;15.03;3.83;;;;;;;29.91;37.04;99652.09;5079342;28;20265;-65
2023/09/28 12:11:09;;;;;;;6.83;3.20;;;;;;;29.68;37.84;99653.28;5079569;28;20668;-65
2023/09/28 12:16:57;;;;;;;6.60;3.37;;;;;;;29.07;39.13;99642.34;5080321;28;20244;-63
2023/09/28 12:22:27;;;;;;;5.87;4.00;;;;;;;28.23;41.35;99638.63;5075116;28;20202;-64
2023/09/28 12:25:14;;;;;;;9.77;3.60;;;;;;;28.21;41.83;99629.09;5080824;28;20240;-63
2023/09/28 12:27:59;;;;;;;9.90;3.77;;;;;;;28.16;41.47;99631.94;5083468;28;20608;-64
2023/09/28 12:30:44;;;;;;;6.53;3.40;;;;;;;28.00;41.90;99633.41;5076467;28;20310;-66
2023/09/28 12:33:30;;;;;;;6.77;3.97;;;;;;;27.94;42.35;99631.91;5078483;28;20245;-64
2023/09/28 12:36:15;;;;;;;10.80;3.53;;;;;;;27.64;43.01;99632.53;5076509;28;20260;-65
2023/09/28 12:38:42;;;;;;;7.10;4.00;;;;;;;27.74;43.11;99626.84;5079234;28;20192;-64
2023/09/28 12:41:11;;;;;;;9.83;3.90;;;;;;;27.75;43.49;99633.91;5071632;28;20718;-65
2023/09/28 12:43:38;;;;;;;6.90;3.80;;;;;;;27.79;43.58;99629.44;5076438;28;20794;-65
2023/09/28 12:46:23;;;;;;;8.40;3.80;;;;;;;27.88;43.19;99627.66;5075922;28;20283;-65
2023/09/28 12:48:52;;;;;;;8.07;3.93;;;;;;;27.72;44.16;99621.69;5077776;28;20233;-64
2023/09/28 12:51:19;;;;;;;10.50;4.17;;;;;;;27.78;43.75;99627.84;5084768;28;20202;-64
2023/09/28 12:53:46;;;;;;;8.27;3.90;;;;;;;27.82;43.71;99631.63;5084032;28;20245;-65
2023/09/28 12:56:34;;;;;;;7.83;4.10;;;;;;;27.86;42.81;99617.06;5078787;28;20195;-65
2023/09/28 12:59:18;;;;;;;10.50;3.87;;;;;;;27.96;43.27;99616.00;5068315;28;20292;-64
2023/09/28 13:01:48;;;;;;;9.83;3.70;;;;;;;27.80;43.71;99622.88;5066410;28;20241;-65
2023/09/28 13:04:14;;;;;;;7.30;4.10;;;;;;;27.62;43.62;99626.53;5075112;28;20286;-64
2023/09/28 13:06:41;;;;;;;6.20;3.90;;;;;;;27.56;44.25;99616.84;5084606;28;20219;-65
2023/09/28 13:09:09;;;;;;;3.97;3.43;;;;;;;27.71;44.00;99624.72;5083713;28;20260;-64
2023/09/28 13:11:37;;;;;;;7.50;3.63;;;;;;;27.79;44.09;99629.44;5078879;28;20336;-64
2023/09/28 13:14:05;;;;;;;7.17;3.77;;;;;;;27.92;44.20;99625.91;5082203;28;20203;-68